Nearby METAR Reports

 

EIDW - Dublin Airport, Ireland
Distance from station: ENE 79km
Updated: 20/01/2018 02:30
Clear
Clear
 Wind from SSW
Wind: SSW 9 km/h
Temperature: 3°C
Wind Chill: 0°C
Dew Point: 1°C
Humidity: 87%
Barometer: 1001 hPa
Summary: Clear
Visibility: greater than 10 km
2018/01/20 02:30 EIDW 200230Z 21005KT CAVOK 03/01 Q1001 NOSIG
EIME - Casement (mil), Ireland
Distance from station: ENE 62km
Updated: 20/01/2018 02:00
Light drizzle, Mostly cloudy
Light drizzle, Mostly cloudy
 Wind from SSW
Wind: SSW 9 km/h
Temperature: 3°C
Wind Chill: 0°C
Dew Point: 1°C
Humidity: 87%
Barometer: 1001 hPa
Summary: Light Drizzle
Clouds: Mostly cloudy
Visibility: 10 km
Cloud details: Partly cloudy 549 m
Mostly cloudy 1311 m
Mostly cloudy 2438 m
2018/01/20 02:00 EIME 200200Z 21005KT 170V250 9999 -DZ SCT018 BKN043 BKN080 03/01 Q1001
EIWF - Waterford Arpt, Ireland
Distance from station: S 111km
Updated: 19/01/2018 20:30
NOT Current
Clear
Clear
 Wind from W
Wind: W 19 km/h
Temperature: 4°C
Wind Chill: 0°C
Dew Point: 2°C
Humidity: 87%
Barometer: 1009 hPa
Summary: Clear
Visibility: greater than 10 km
2018/01/19 20:30 EIWF 192030Z 27010KT 240V300 CAVOK 04/02 Q1009
 
EINN - Shannon Airport, Ireland
Distance from station: WSW 117km
Updated: 20/01/2018 02:30
Mostly cloudy
Mostly cloudy
 Wind from ESE
Wind: ESE 17 km/h
Temperature: 4°C
Wind Chill: 0°C
Dew Point: 3°C
Humidity: 93%
Barometer: 999 hPa
Clouds: Mostly cloudy
Visibility: 10 km
Cloud details: Few Clouds 457 m
Mostly cloudy 1036 m
Mostly cloudy 1524 m
2018/01/20 02:30 EINN 200230Z 11009KT 9999 FEW015 BKN034 BKN050 04/03 Q0999 NOSIG
EIKN - Connaught Apt, Ireland
Distance from station: NW 127km
Updated: 19/01/2018 19:00
NOT Current
Mostly cloudy
Mostly cloudy
 Wind from SW
Wind: SW 11 km/h
Temperature: 1°C
Wind Chill: -2°C
Dew Point: 0°C
Humidity: 93%
Barometer: 1004 hPa
Clouds: Mostly cloudy
Visibility: 10 km
Cloud details: Few Clouds 549 m
Partly cloudy 1158 m
Mostly cloudy 5182 m
2018/01/19 19:00 EIKN 191900Z 23006KT 9999 FEW018CB SCT038 BKN170 01/00 Q1004 NOSIG
EISG - Sligo Arpt, Ireland
Distance from station: NNW 148km
Updated: 19/01/2018 17:00
NOT Current
Few Clouds
Few Clouds
 Wind from WSW
Wind: WSW 20 km/h
Temperature: 4°C
Wind Chill: -1°C
Dew Point: 2°C
Humidity: 87%
Barometer: 1004 hPa
Clouds: Few Clouds
Visibility: 7 km
Cloud details: Few Clouds 1189 m
2018/01/19 17:00 EISG 191700Z 24011KT 7000 FEW039 04/02 Q1004
 
EICK - Cork Arpt/Corcai, Ireland
Distance from station: SSW 165km
Updated: 20/01/2018 02:30
Light rain, Drizzle, Fog, Mostly cloudy
Light rain, Drizzle, Fog, Mostly cloudy
 Wind from E
Wind: E 9 km/h
Temperature: 5°C
Wind Chill: 3°C
Dew Point: 5°C
Humidity: 100%
Barometer: 999 hPa
Summary: Light rain, Drizzle, Fog
Clouds: Mostly cloudy
Visibility: 1 km
Cloud details: Mostly cloudy 30 m
Mostly cloudy 213 m
Mostly cloudy 853 m
2018/01/20 02:30 EICK 200230Z 10005KT 0800 R17/P2000 R35/1800D -RADZ FG BKN001 BKN007 BKN028 05/05 Q0999 TEMPO 4000 SCT002
EGAA - Belfast/Aldergro, United Kingdom
Distance from station: NNE 179km
Updated: 20/01/2018 02:20
Partly cloudy
Partly cloudy
 Wind from varies
Wind: varies 6 km/h
Temperature: 0°C
Dew Point: 0°C
Humidity: 100%
Barometer: 1000 hPa
Clouds: Partly cloudy
Visibility: 10 km
Cloud details: Partly cloudy 183 m
2018/01/20 02:20 EGAA 200220Z VRB03KT 9999 SCT006 00/00 Q1000
EIKY - Kerry Arpt, Ireland
Distance from station: SW 182km
Updated: 19/01/2018 22:00
NOT Current
Rain, Overcast
Rain, Overcast
 Wind from SSE
Wind: SSE 11 km/h
Temperature: 5°C
Wind Chill: 2°C
Dew Point: 4°C
Humidity: 93%
Barometer: 1005 hPa
Summary: Rain
Clouds: Overcast
Visibility: 10 km
Cloud details: Partly cloudy 732 m
Overcast 1372 m
2018/01/19 22:00 EIKY 192200Z 16006KT 9999 RA SCT024 OVC045 05/04 Q1005
 
EGAC - Belfast Harbour, United Kingdom
Distance from station: NNE 188km
Updated: 20/01/2018 02:20
Clear
Clear
 Wind from SSE
Wind: SSE 7 km/h
Temperature: 1°C
Wind Chill: -2°C
Dew Point: 1°C
Humidity: 100%
Barometer: 1000 hPa
Clouds: Clear
Visibility: 10 km
2018/01/20 02:20 EGAC 200220Z AUTO 15004KT 130V190 9999 NCD 01/01 Q1000
EGOV - Valley Raf, United Kingdom
Distance from station: E 188km
Updated: 20/01/2018 01:50
Mostly cloudy
Mostly cloudy
 Wind from SW
Wind: SW 24 km/h
Temperature: 6°C
Wind Chill: 2°C
Dew Point: 2°C
Humidity: 76%
Barometer: 1002 hPa
Clouds: Mostly cloudy
Visibility: 10 km
Cloud details: Few Clouds 3962 m
Mostly cloudy 5182 m
2018/01/20 01:50 EGOV 200150Z AUTO 23013KT 9999 FEW130/// BKN170/// 06/02 Q1002
EGNS - Isle Of Man/Rona, United Kingdom
Distance from station: ENE 207km
Updated: 20/01/2018 01:50
Few Clouds
Few Clouds
 Wind from WSW
Wind: WSW 22 km/h
Temperature: 5°C
Wind Chill: 1°C
Dew Point: 2°C
Humidity: 81%
Barometer: 1001 hPa
Clouds: Few Clouds
Visibility: 10 km
Cloud details: Few Clouds 518 m
2018/01/20 01:50 EGNS 200150Z 25012KT 9999 FEW017 05/02 Q1001